sensor_id;sensor_type;location;lat;lon;timestamp;P1;durP1;ratioP1;P2;durP2;ratioP2
48199;SDS011;33990;44.602;10.976;2023-12-20T00:00:37;8.52;;;7.38;;
48199;SDS011;33990;44.602;10.976;2023-12-20T00:03:05;10.30;;;8.68;;
48199;SDS011;33990;44.602;10.976;2023-12-20T00:05:32;9.48;;;8.48;;
48199;SDS011;33990;44.602;10.976;2023-12-20T00:08:00;8.70;;;7.32;;
48199;SDS011;33990;44.602;10.976;2023-12-20T00:10:28;10.40;;;8.57;;
48199;SDS011;33990;44.602;10.976;2023-12-20T00:12:55;9.13;;;8.18;;
48199;SDS011;33990;44.602;10.976;2023-12-20T00:15:22;10.20;;;8.07;;
48199;SDS011;33990;44.602;10.976;2023-12-20T00:17:50;9.73;;;7.13;;
48199;SDS011;33990;44.602;10.976;2023-12-20T00:20:17;10.07;;;8.32;;
48199;SDS011;33990;44.602;10.976;2023-12-20T00:22:45;9.82;;;8.52;;
48199;SDS011;33990;44.602;10.976;2023-12-20T00:25:13;12.00;;;8.20;;
48199;SDS011;33990;44.602;10.976;2023-12-20T00:27:40;9.18;;;8.05;;
48199;SDS011;33990;44.602;10.976;2023-12-20T00:30:09;10.85;;;8.07;;
48199;SDS011;33990;44.602;10.976;2023-12-20T00:32:37;14.57;;;8.07;;
48199;SDS011;33990;44.602;10.976;2023-12-20T00:35:05;10.25;;;7.72;;
48199;SDS011;33990;44.602;10.976;2023-12-20T00:37:32;9.27;;;7.85;;
48199;SDS011;33990;44.602;10.976;2023-12-20T00:40:00;11.55;;;7.97;;
48199;SDS011;33990;44.602;10.976;2023-12-20T00:42:27;10.20;;;7.15;;
48199;SDS011;33990;44.602;10.976;2023-12-20T00:44:55;11.05;;;7.63;;
48199;SDS011;33990;44.602;10.976;2023-12-20T00:47:22;10.20;;;8.60;;
48199;SDS011;33990;44.602;10.976;2023-12-20T00:49:50;8.95;;;8.05;;
48199;SDS011;33990;44.602;10.976;2023-12-20T00:52:17;10.20;;;8.27;;
48199;SDS011;33990;44.602;10.976;2023-12-20T00:54:45;13.40;;;8.20;;
48199;SDS011;33990;44.602;10.976;2023-12-20T00:57:12;10.98;;;8.00;;
48199;SDS011;33990;44.602;10.976;2023-12-20T00:59:40;10.18;;;8.10;;
48199;SDS011;33990;44.602;10.976;2023-12-20T01:02:07;11.13;;;8.15;;
48199;SDS011;33990;44.602;10.976;2023-12-20T01:04:36;10.00;;;7.88;;
48199;SDS011;33990;44.602;10.976;2023-12-20T01:07:03;8.77;;;7.75;;
48199;SDS011;33990;44.602;10.976;2023-12-20T01:09:31;10.85;;;8.63;;
48199;SDS011;33990;44.602;10.976;2023-12-20T01:11:58;8.07;;;7.28;;
48199;SDS011;33990;44.602;10.976;2023-12-20T01:14:25;8.95;;;7.13;;
48199;SDS011;33990;44.602;10.976;2023-12-20T01:16:53;11.10;;;7.90;;
48199;SDS011;33990;44.602;10.976;2023-12-20T01:19:20;9.52;;;7.72;;
48199;SDS011;33990;44.602;10.976;2023-12-20T01:21:48;7.82;;;6.88;;
48199;SDS011;33990;44.602;10.976;2023-12-20T01:24:15;9.30;;;7.68;;
48199;SDS011;33990;44.602;10.976;2023-12-20T01:26:43;9.57;;;7.63;;
48199;SDS011;33990;44.602;10.976;2023-12-20T01:29:10;9.40;;;8.07;;
48199;SDS011;33990;44.602;10.976;2023-12-20T01:31:38;9.73;;;7.13;;
48199;SDS011;33990;44.602;10.976;2023-12-20T01:34:05;9.02;;;7.40;;
48199;SDS011;33990;44.602;10.976;2023-12-20T01:36:32;10.77;;;7.50;;
48199;SDS011;33990;44.602;10.976;2023-12-20T01:39:00;9.02;;;7.40;;
48199;SDS011;33990;44.602;10.976;2023-12-20T01:41:29;8.30;;;6.85;;
48199;SDS011;33990;44.602;10.976;2023-12-20T01:43:56;9.02;;;7.97;;
48199;SDS011;33990;44.602;10.976;2023-12-20T01:46:23;10.27;;;7.53;;
48199;SDS011;33990;44.602;10.976;2023-12-20T01:48:51;11.63;;;8.00;;
48199;SDS011;33990;44.602;10.976;2023-12-20T01:51:19;9.13;;;7.28;;
48199;SDS011;33990;44.602;10.976;2023-12-20T01:53:48;7.63;;;6.78;;
48199;SDS011;33990;44.602;10.976;2023-12-20T01:56:16;9.02;;;7.70;;
48199;SDS011;33990;44.602;10.976;2023-12-20T01:58:44;8.63;;;6.65;;
48199;SDS011;33990;44.602;10.976;2023-12-20T02:01:13;8.05;;;6.45;;
48199;SDS011;33990;44.602;10.976;2023-12-20T02:03:41;9.05;;;7.35;;
48199;SDS011;33990;44.602;10.976;2023-12-20T02:06:09;8.02;;;6.75;;
48199;SDS011;33990;44.602;10.976;2023-12-20T02:08:37;9.93;;;7.78;;
48199;SDS011;33990;44.602;10.976;2023-12-20T02:11:04;8.20;;;6.65;;
48199;SDS011;33990;44.602;10.976;2023-12-20T02:13:31;8.30;;;7.28;;
48199;SDS011;33990;44.602;10.976;2023-12-20T02:15:59;7.80;;;6.97;;
48199;SDS011;33990;44.602;10.976;2023-12-20T02:18:27;8.00;;;6.53;;
48199;SDS011;33990;44.602;10.976;2023-12-20T02:20:55;9.07;;;7.00;;
48199;SDS011;33990;44.602;10.976;2023-12-20T02:23:23;10.20;;;7.18;;
48199;SDS011;33990;44.602;10.976;2023-12-20T02:25:50;8.30;;;6.78;;
48199;SDS011;33990;44.602;10.976;2023-12-20T02:28:18;9.52;;;7.82;;
48199;SDS011;33990;44.602;10.976;2023-12-20T02:30:46;10.50;;;7.13;;
48199;SDS011;33990;44.602;10.976;2023-12-20T02:33:13;7.75;;;6.95;;
48199;SDS011;33990;44.602;10.976;2023-12-20T02:35:41;8.88;;;7.55;;
48199;SDS011;33990;44.602;10.976;2023-12-20T02:38:08;10.55;;;6.70;;
48199;SDS011;33990;44.602;10.976;2023-12-20T02:40:36;8.10;;;6.78;;
48199;SDS011;33990;44.602;10.976;2023-12-20T02:43:03;8.02;;;6.28;;
48199;SDS011;33990;44.602;10.976;2023-12-20T02:45:31;8.13;;;6.65;;
48199;SDS011;33990;44.602;10.976;2023-12-20T02:47:58;8.52;;;6.82;;
48199;SDS011;33990;44.602;10.976;2023-12-20T02:50:25;8.85;;;7.03;;
48199;SDS011;33990;44.602;10.976;2023-12-20T02:52:53;7.15;;;6.43;;
48199;SDS011;33990;44.602;10.976;2023-12-20T02:55:20;10.80;;;6.90;;
48199;SDS011;33990;44.602;10.976;2023-12-20T02:57:48;7.85;;;6.60;;
48199;SDS011;33990;44.602;10.976;2023-12-20T03:00:15;8.65;;;6.50;;
48199;SDS011;33990;44.602;10.976;2023-12-20T03:02:43;8.65;;;6.53;;
48199;SDS011;33990;44.602;10.976;2023-12-20T03:05:10;6.70;;;6.00;;
48199;SDS011;33990;44.602;10.976;2023-12-20T03:07:38;7.78;;;6.22;;
48199;SDS011;33990;44.602;10.976;2023-12-20T03:10:05;8.60;;;6.53;;
48199;SDS011;33990;44.602;10.976;2023-12-20T03:12:46;8.63;;;6.50;;
48199;SDS011;33990;44.602;10.976;2023-12-20T03:15:14;7.85;;;6.50;;
48199;SDS011;33990;44.602;10.976;2023-12-20T03:17:41;7.38;;;6.03;;
48199;SDS011;33990;44.602;10.976;2023-12-20T03:20:09;7.95;;;6.20;;
48199;SDS011;33990;44.602;10.976;2023-12-20T03:22:37;8.40;;;5.97;;
48199;SDS011;33990;44.602;10.976;2023-12-20T03:25:04;7.13;;;6.10;;
48199;SDS011;33990;44.602;10.976;2023-12-20T03:27:32;8.02;;;6.15;;
48199;SDS011;33990;44.602;10.976;2023-12-20T03:29:59;7.43;;;6.28;;
48199;SDS011;33990;44.602;10.976;2023-12-20T03:32:27;6.70;;;5.85;;
48199;SDS011;33990;44.602;10.976;2023-12-20T03:34:54;8.43;;;5.80;;
48199;SDS011;33990;44.602;10.976;2023-12-20T03:37:22;6.80;;;5.80;;
48199;SDS011;33990;44.602;10.976;2023-12-20T03:39:50;7.93;;;6.85;;
48199;SDS011;33990;44.602;10.976;2023-12-20T03:42:17;8.18;;;6.97;;
48199;SDS011;33990;44.602;10.976;2023-12-20T03:44:45;7.68;;;6.00;;
48199;SDS011;33990;44.602;10.976;2023-12-20T03:47:12;8.10;;;6.00;;
48199;SDS011;33990;44.602;10.976;2023-12-20T03:49:40;8.20;;;6.22;;
48199;SDS011;33990;44.602;10.976;2023-12-20T03:52:07;13.88;;;7.10;;
48199;SDS011;33990;44.602;10.976;2023-12-20T03:54:35;6.65;;;5.68;;
48199;SDS011;33990;44.602;10.976;2023-12-20T03:57:02;8.85;;;5.95;;
48199;SDS011;33990;44.602;10.976;2023-12-20T03:59:34;6.05;;;5.32;;
48199;SDS011;33990;44.602;10.976;2023-12-20T04:02:03;7.35;;;5.53;;
48199;SDS011;33990;44.602;10.976;2023-12-20T04:04:31;7.63;;;5.80;;
48199;SDS011;33990;44.602;10.976;2023-12-20T04:06:59;6.80;;;5.07;;
48199;SDS011;33990;44.602;10.976;2023-12-20T04:09:26;7.43;;;5.90;;
48199;SDS011;33990;44.602;10.976;2023-12-20T04:11:53;5.85;;;5.18;;
48199;SDS011;33990;44.602;10.976;2023-12-20T04:14:21;6.95;;;5.72;;
48199;SDS011;33990;44.602;10.976;2023-12-20T04:16:48;7.18;;;4.93;;
48199;SDS011;33990;44.602;10.976;2023-12-20T04:19:16;6.03;;;5.28;;
48199;SDS011;33990;44.602;10.976;2023-12-20T04:21:43;7.72;;;5.90;;
48199;SDS011;33990;44.602;10.976;2023-12-20T04:24:11;7.20;;;5.63;;
48199;SDS011;33990;44.602;10.976;2023-12-20T04:26:38;7.75;;;5.85;;
48199;SDS011;33990;44.602;10.976;2023-12-20T04:29:05;7.82;;;5.57;;
48199;SDS011;33990;44.602;10.976;2023-12-20T04:31:33;7.03;;;5.15;;
48199;SDS011;33990;44.602;10.976;2023-12-20T04:34:00;7.18;;;5.22;;
48199;SDS011;33990;44.602;10.976;2023-12-20T04:36:28;6.63;;;4.55;;
48199;SDS011;33990;44.602;10.976;2023-12-20T04:38:57;6.07;;;4.82;;
48199;SDS011;33990;44.602;10.976;2023-12-20T04:41:24;6.63;;;5.35;;
48199;SDS011;33990;44.602;10.976;2023-12-20T04:43:51;7.50;;;5.18;;
48199;SDS011;33990;44.602;10.976;2023-12-20T04:46:19;7.97;;;5.05;;
48199;SDS011;33990;44.602;10.976;2023-12-20T04:48:46;6.78;;;4.43;;
48199;SDS011;33990;44.602;10.976;2023-12-20T04:51:14;6.38;;;4.97;;
48199;SDS011;33990;44.602;10.976;2023-12-20T04:53:41;6.65;;;4.85;;
48199;SDS011;33990;44.602;10.976;2023-12-20T04:56:08;5.97;;;4.85;;
48199;SDS011;33990;44.602;10.976;2023-12-20T04:58:35;6.43;;;4.45;;
48199;SDS011;33990;44.602;10.976;2023-12-20T05:01:03;5.75;;;4.63;;
48199;SDS011;33990;44.602;10.976;2023-12-20T05:03:33;7.32;;;4.82;;
48199;SDS011;33990;44.602;10.976;2023-12-20T05:06:00;4.97;;;4.18;;
48199;SDS011;33990;44.602;10.976;2023-12-20T05:08:28;6.93;;;4.45;;
48199;SDS011;33990;44.602;10.976;2023-12-20T05:10:55;5.57;;;4.45;;
48199;SDS011;33990;44.602;10.976;2023-12-20T05:13:23;5.75;;;4.30;;
48199;SDS011;33990;44.602;10.976;2023-12-20T05:16:03;6.65;;;4.93;;
48199;SDS011;33990;44.602;10.976;2023-12-20T05:18:31;6.90;;;4.95;;
48199;SDS011;33990;44.602;10.976;2023-12-20T05:20:58;8.73;;;5.43;;
48199;SDS011;33990;44.602;10.976;2023-12-20T05:23:26;5.45;;;4.57;;
48199;SDS011;33990;44.602;10.976;2023-12-20T05:25:56;7.10;;;4.82;;
48199;SDS011;33990;44.602;10.976;2023-12-20T05:28:24;6.88;;;5.00;;
48199;SDS011;33990;44.602;10.976;2023-12-20T05:30:52;6.22;;;4.88;;
48199;SDS011;33990;44.602;10.976;2023-12-20T05:33:21;5.15;;;4.05;;
48199;SDS011;33990;44.602;10.976;2023-12-20T05:35:48;7.57;;;4.82;;
48199;SDS011;33990;44.602;10.976;2023-12-20T05:38:16;6.75;;;4.45;;
48199;SDS011;33990;44.602;10.976;2023-12-20T05:40:43;6.75;;;4.20;;
48199;SDS011;33990;44.602;10.976;2023-12-20T05:43:11;5.97;;;4.43;;
48199;SDS011;33990;44.602;10.976;2023-12-20T05:45:38;6.75;;;4.30;;
48199;SDS011;33990;44.602;10.976;2023-12-20T05:48:06;6.03;;;4.88;;
48199;SDS011;33990;44.602;10.976;2023-12-20T05:50:33;5.22;;;4.10;;
48199;SDS011;33990;44.602;10.976;2023-12-20T05:53:02;5.18;;;4.13;;
48199;SDS011;33990;44.602;10.976;2023-12-20T05:55:29;6.05;;;3.72;;
48199;SDS011;33990;44.602;10.976;2023-12-20T05:57:56;6.25;;;4.40;;
48199;SDS011;33990;44.602;10.976;2023-12-20T06:00:24;5.28;;;3.75;;
48199;SDS011;33990;44.602;10.976;2023-12-20T06:02:52;5.63;;;4.28;;
48199;SDS011;33990;44.602;10.976;2023-12-20T06:05:19;6.38;;;4.05;;
48199;SDS011;33990;44.602;10.976;2023-12-20T06:07:47;5.28;;;4.28;;
48199;SDS011;33990;44.602;10.976;2023-12-20T06:10:18;5.93;;;4.50;;
48199;SDS011;33990;44.602;10.976;2023-12-20T06:12:48;6.50;;;4.03;;
48199;SDS011;33990;44.602;10.976;2023-12-20T06:15:17;5.50;;;3.97;;
48199;SDS011;33990;44.602;10.976;2023-12-20T06:17:44;5.45;;;4.00;;
48199;SDS011;33990;44.602;10.976;2023-12-20T06:20:14;5.32;;;4.15;;
48199;SDS011;33990;44.602;10.976;2023-12-20T06:22:42;6.68;;;4.20;;
48199;SDS011;33990;44.602;10.976;2023-12-20T06:25:09;5.53;;;4.10;;
48199;SDS011;33990;44.602;10.976;2023-12-20T06:27:37;6.00;;;4.40;;
48199;SDS011;33990;44.602;10.976;2023-12-20T06:30:04;5.05;;;3.72;;
48199;SDS011;33990;44.602;10.976;2023-12-20T06:32:32;5.90;;;4.35;;
48199;SDS011;33990;44.602;10.976;2023-12-20T06:35:01;5.85;;;4.07;;
48199;SDS011;33990;44.602;10.976;2023-12-20T06:37:28;5.72;;;4.20;;
48199;SDS011;33990;44.602;10.976;2023-12-20T06:39:56;5.25;;;3.92;;
48199;SDS011;33990;44.602;10.976;2023-12-20T06:42:26;7.63;;;3.78;;
48199;SDS011;33990;44.602;10.976;2023-12-20T06:44:56;5.57;;;3.95;;
48199;SDS011;33990;44.602;10.976;2023-12-20T06:47:23;5.45;;;3.90;;
48199;SDS011;33990;44.602;10.976;2023-12-20T06:49:50;6.57;;;3.90;;
48199;SDS011;33990;44.602;10.976;2023-12-20T06:52:18;5.82;;;4.20;;
48199;SDS011;33990;44.602;10.976;2023-12-20T06:54:45;4.55;;;3.53;;
48199;SDS011;33990;44.602;10.976;2023-12-20T06:57:13;5.68;;;3.72;;
48199;SDS011;33990;44.602;10.976;2023-12-20T06:59:40;5.95;;;3.72;;
48199;SDS011;33990;44.602;10.976;2023-12-20T07:02:08;5.35;;;3.90;;
48199;SDS011;33990;44.602;10.976;2023-12-20T07:04:41;5.88;;;3.58;;
48199;SDS011;33990;44.602;10.976;2023-12-20T07:07:09;6.80;;;4.25;;
48199;SDS011;33990;44.602;10.976;2023-12-20T07:09:36;4.63;;;3.67;;
48199;SDS011;33990;44.602;10.976;2023-12-20T07:12:05;5.18;;;3.67;;
48199;SDS011;33990;44.602;10.976;2023-12-20T07:14:32;5.40;;;3.70;;
48199;SDS011;33990;44.602;10.976;2023-12-20T07:17:00;5.63;;;3.85;;
48199;SDS011;33990;44.602;10.976;2023-12-20T07:19:27;5.78;;;4.10;;
48199;SDS011;33990;44.602;10.976;2023-12-20T07:21:55;4.95;;;3.60;;
48199;SDS011;33990;44.602;10.976;2023-12-20T07:24:22;5.95;;;4.13;;
48199;SDS011;33990;44.602;10.976;2023-12-20T07:26:49;7.78;;;3.90;;
48199;SDS011;33990;44.602;10.976;2023-12-20T07:29:17;5.70;;;3.72;;
48199;SDS011;33990;44.602;10.976;2023-12-20T07:31:45;6.15;;;3.67;;
48199;SDS011;33990;44.602;10.976;2023-12-20T07:34:12;5.88;;;3.72;;
48199;SDS011;33990;44.602;10.976;2023-12-20T07:36:40;5.95;;;4.30;;
48199;SDS011;33990;44.602;10.976;2023-12-20T07:39:07;5.88;;;3.88;;
48199;SDS011;33990;44.602;10.976;2023-12-20T07:41:35;6.47;;;3.80;;
48199;SDS011;33990;44.602;10.976;2023-12-20T07:44:03;6.93;;;3.55;;
48199;SDS011;33990;44.602;10.976;2023-12-20T07:46:31;6.32;;;4.25;;
48199;SDS011;33990;44.602;10.976;2023-12-20T07:48:59;5.57;;;3.80;;
48199;SDS011;33990;44.602;10.976;2023-12-20T07:51:26;4.72;;;3.65;;
48199;SDS011;33990;44.602;10.976;2023-12-20T07:53:53;5.53;;;3.75;;
48199;SDS011;33990;44.602;10.976;2023-12-20T07:56:21;5.00;;;3.30;;
48199;SDS011;33990;44.602;10.976;2023-12-20T07:58:48;6.10;;;3.92;;
48199;SDS011;33990;44.602;10.976;2023-12-20T08:01:20;5.63;;;3.70;;
48199;SDS011;33990;44.602;10.976;2023-12-20T08:03:48;8.57;;;3.88;;
48199;SDS011;33990;44.602;10.976;2023-12-20T08:06:17;5.38;;;3.60;;
48199;SDS011;33990;44.602;10.976;2023-12-20T08:08:45;6.65;;;3.72;;
48199;SDS011;33990;44.602;10.976;2023-12-20T08:11:20;7.20;;;4.20;;
48199;SDS011;33990;44.602;10.976;2023-12-20T08:13:48;5.43;;;3.88;;
48199;SDS011;33990;44.602;10.976;2023-12-20T08:16:15;8.80;;;3.90;;
48199;SDS011;33990;44.602;10.976;2023-12-20T08:18:44;4.72;;;3.20;;
48199;SDS011;33990;44.602;10.976;2023-12-20T08:21:13;6.22;;;3.58;;
48199;SDS011;33990;44.602;10.976;2023-12-20T08:23:40;6.05;;;3.55;;
48199;SDS011;33990;44.602;10.976;2023-12-20T08:26:08;6.50;;;3.25;;
48199;SDS011;33990;44.602;10.976;2023-12-20T08:28:36;7.40;;;3.38;;
48199;SDS011;33990;44.602;10.976;2023-12-20T08:31:04;4.15;;;2.85;;
48199;SDS011;33990;44.602;10.976;2023-12-20T08:33:31;8.15;;;4.05;;
48199;SDS011;33990;44.602;10.976;2023-12-20T08:35:59;5.47;;;3.65;;
48199;SDS011;33990;44.602;10.976;2023-12-20T08:38:26;6.00;;;4.00;;
48199;SDS011;33990;44.602;10.976;2023-12-20T08:40:53;4.32;;;3.13;;
48199;SDS011;33990;44.602;10.976;2023-12-20T08:43:20;5.35;;;3.17;;
48199;SDS011;33990;44.602;10.976;2023-12-20T08:45:48;6.68;;;3.13;;
48199;SDS011;33990;44.602;10.976;2023-12-20T08:48:15;4.85;;;3.00;;
48199;SDS011;33990;44.602;10.976;2023-12-20T08:50:43;5.55;;;3.22;;
48199;SDS011;33990;44.602;10.976;2023-12-20T08:53:11;5.90;;;3.88;;
48199;SDS011;33990;44.602;10.976;2023-12-20T08:55:38;5.40;;;3.78;;
48199;SDS011;33990;44.602;10.976;2023-12-20T08:58:06;5.70;;;3.13;;
48199;SDS011;33990;44.602;10.976;2023-12-20T09:00:35;5.72;;;3.35;;
48199;SDS011;33990;44.602;10.976;2023-12-20T09:03:02;4.65;;;3.10;;
48199;SDS011;33990;44.602;10.976;2023-12-20T09:05:30;6.45;;;3.42;;
48199;SDS011;33990;44.602;10.976;2023-12-20T09:07:57;6.70;;;3.80;;
48199;SDS011;33990;44.602;10.976;2023-12-20T09:10:25;5.85;;;3.47;;
48199;SDS011;33990;44.602;10.976;2023-12-20T09:12:53;5.47;;;3.92;;
48199;SDS011;33990;44.602;10.976;2023-12-20T09:15:24;7.13;;;4.60;;
48199;SDS011;33990;44.602;10.976;2023-12-20T09:17:53;6.15;;;4.45;;
48199;SDS011;33990;44.602;10.976;2023-12-20T09:20:21;7.30;;;4.85;;
48199;SDS011;33990;44.602;10.976;2023-12-20T09:22:50;7.28;;;5.30;;
48199;SDS011;33990;44.602;10.976;2023-12-20T09:25:18;5.53;;;4.57;;
48199;SDS011;33990;44.602;10.976;2023-12-20T09:27:45;7.63;;;5.75;;
48199;SDS011;33990;44.602;10.976;2023-12-20T09:30:13;6.35;;;4.50;;
48199;SDS011;33990;44.602;10.976;2023-12-20T09:32:54;9.43;;;4.60;;
48199;SDS011;33990;44.602;10.976;2023-12-20T09:35:22;6.13;;;4.38;;
48199;SDS011;33990;44.602;10.976;2023-12-20T09:37:50;6.35;;;3.90;;
48199;SDS011;33990;44.602;10.976;2023-12-20T09:40:20;5.70;;;4.53;;
48199;SDS011;33990;44.602;10.976;2023-12-20T09:43:01;7.70;;;4.53;;
48199;SDS011;33990;44.602;10.976;2023-12-20T09:45:31;5.80;;;4.22;;
48199;SDS011;33990;44.602;10.976;2023-12-20T09:47:59;10.50;;;6.05;;
48199;SDS011;33990;44.602;10.976;2023-12-20T09:50:28;11.13;;;6.28;;
48199;SDS011;33990;44.602;10.976;2023-12-20T09:53:00;9.77;;;6.05;;
48199;SDS011;33990;44.602;10.976;2023-12-20T09:55:29;8.13;;;5.70;;
48199;SDS011;33990;44.602;10.976;2023-12-20T09:57:59;4.80;;;3.95;;
48199;SDS011;33990;44.602;10.976;2023-12-20T10:00:27;5.88;;;4.30;;
48199;SDS011;33990;44.602;10.976;2023-12-20T10:02:58;8.15;;;4.40;;
48199;SDS011;33990;44.602;10.976;2023-12-20T10:05:28;5.95;;;4.20;;
48199;SDS011;33990;44.602;10.976;2023-12-20T10:08:00;10.90;;;6.80;;
48199;SDS011;33990;44.602;10.976;2023-12-20T10:10:29;10.43;;;7.88;;
48199;SDS011;33990;44.602;10.976;2023-12-20T10:13:11;9.10;;;5.63;;
48199;SDS011;33990;44.602;10.976;2023-12-20T10:15:40;7.20;;;5.50;;
48199;SDS011;33990;44.602;10.976;2023-12-20T10:18:09;7.50;;;4.50;;
48199;SDS011;33990;44.602;10.976;2023-12-20T10:20:40;7.60;;;4.65;;
48199;SDS011;33990;44.602;10.976;2023-12-20T10:23:08;7.53;;;4.82;;
48199;SDS011;33990;44.602;10.976;2023-12-20T10:25:36;7.88;;;4.18;;
48199;SDS011;33990;44.602;10.976;2023-12-20T10:30:41;9.13;;;4.95;;
48199;SDS011;33990;44.602;10.976;2023-12-20T10:33:10;8.85;;;5.78;;
48199;SDS011;33990;44.602;10.976;2023-12-20T10:35:39;11.98;;;7.25;;
48199;SDS011;33990;44.602;10.976;2023-12-20T10:38:12;7.75;;;6.18;;
48199;SDS011;33990;44.602;10.976;2023-12-20T10:40:41;8.88;;;6.18;;
48199;SDS011;33990;44.602;10.976;2023-12-20T10:43:10;7.38;;;5.70;;
48199;SDS011;33990;44.602;10.976;2023-12-20T10:45:38;8.20;;;4.85;;
48199;SDS011;33990;44.602;10.976;2023-12-20T10:48:06;7.80;;;4.78;;
48199;SDS011;33990;44.602;10.976;2023-12-20T10:50:34;9.23;;;6.00;;
48199;SDS011;33990;44.602;10.976;2023-12-20T10:53:05;8.93;;;5.07;;
48199;SDS011;33990;44.602;10.976;2023-12-20T10:55:33;6.50;;;4.38;;
48199;SDS011;33990;44.602;10.976;2023-12-20T10:58:01;8.10;;;4.68;;
48199;SDS011;33990;44.602;10.976;2023-12-20T11:00:41;7.68;;;5.13;;
48199;SDS011;33990;44.602;10.976;2023-12-20T11:03:13;7.80;;;4.68;;
48199;SDS011;33990;44.602;10.976;2023-12-20T11:05:49;6.45;;;4.85;;
48199;SDS011;33990;44.602;10.976;2023-12-20T11:08:28;9.10;;;5.20;;
48199;SDS011;33990;44.602;10.976;2023-12-20T11:11:13;7.78;;;5.47;;
48199;SDS011;33990;44.602;10.976;2023-12-20T11:13:57;8.30;;;5.25;;
48199;SDS011;33990;44.602;10.976;2023-12-20T11:16:30;8.55;;;5.40;;
48199;SDS011;33990;44.602;10.976;2023-12-20T11:19:14;7.93;;;5.40;;
48199;SDS011;33990;44.602;10.976;2023-12-20T11:21:42;8.60;;;5.10;;
48199;SDS011;33990;44.602;10.976;2023-12-20T11:24:09;7.70;;;5.07;;
48199;SDS011;33990;44.602;10.976;2023-12-20T11:26:37;7.32;;;5.00;;
48199;SDS011;33990;44.602;10.976;2023-12-20T11:31:59;7.05;;;4.80;;
48199;SDS011;33990;44.602;10.976;2023-12-20T11:34:29;9.80;;;5.07;;
48199;SDS011;33990;44.602;10.976;2023-12-20T11:36:59;7.10;;;5.30;;
48199;SDS011;33990;44.602;10.976;2023-12-20T11:39:29;7.70;;;5.28;;
48199;SDS011;33990;44.602;10.976;2023-12-20T11:42:03;8.35;;;5.13;;
48199;SDS011;33990;44.602;10.976;2023-12-20T11:44:32;9.77;;;5.10;;
48199;SDS011;33990;44.602;10.976;2023-12-20T11:47:00;7.32;;;4.78;;
48199;SDS011;33990;44.602;10.976;2023-12-20T11:49:28;6.68;;;5.45;;
48199;SDS011;33990;44.602;10.976;2023-12-20T11:51:57;7.22;;;4.65;;
48199;SDS011;33990;44.602;10.976;2023-12-20T11:54:25;8.40;;;4.85;;
48199;SDS011;33990;44.602;10.976;2023-12-20T11:56:52;8.80;;;5.28;;
48199;SDS011;33990;44.602;10.976;2023-12-20T11:59:20;5.93;;;4.75;;
48199;SDS011;33990;44.602;10.976;2023-12-20T12:01:50;5.75;;;4.45;;
48199;SDS011;33990;44.602;10.976;2023-12-20T12:04:19;6.47;;;4.85;;
48199;SDS011;33990;44.602;10.976;2023-12-20T12:06:46;6.40;;;4.43;;
48199;SDS011;33990;44.602;10.976;2023-12-20T12:09:14;7.40;;;4.70;;
48199;SDS011;33990;44.602;10.976;2023-12-20T12:11:42;7.03;;;4.20;;
48199;SDS011;33990;44.602;10.976;2023-12-20T12:14:10;7.85;;;4.38;;
48199;SDS011;33990;44.602;10.976;2023-12-20T12:16:38;7.35;;;5.03;;
48199;SDS011;33990;44.602;10.976;2023-12-20T12:19:05;9.93;;;4.63;;
48199;SDS011;33990;44.602;10.976;2023-12-20T12:21:33;6.65;;;4.47;;
48199;SDS011;33990;44.602;10.976;2023-12-20T12:24:07;9.52;;;5.00;;
48199;SDS011;33990;44.602;10.976;2023-12-20T12:26:35;6.60;;;4.75;;
48199;SDS011;33990;44.602;10.976;2023-12-20T12:29:03;6.53;;;4.72;;
48199;SDS011;33990;44.602;10.976;2023-12-20T12:31:30;6.13;;;4.95;;
48199;SDS011;33990;44.602;10.976;2023-12-20T12:33:58;6.18;;;4.60;;
48199;SDS011;33990;44.602;10.976;2023-12-20T12:36:25;8.80;;;5.07;;
48199;SDS011;33990;44.602;10.976;2023-12-20T12:38:53;7.22;;;4.45;;
48199;SDS011;33990;44.602;10.976;2023-12-20T12:41:23;6.90;;;4.47;;
48199;SDS011;33990;44.602;10.976;2023-12-20T12:43:50;6.78;;;4.57;;
48199;SDS011;33990;44.602;10.976;2023-12-20T12:46:17;7.65;;;4.72;;
48199;SDS011;33990;44.602;10.976;2023-12-20T12:48:45;6.13;;;3.83;;
48199;SDS011;33990;44.602;10.976;2023-12-20T12:51:13;5.82;;;4.47;;
48199;SDS011;33990;44.602;10.976;2023-12-20T12:53:41;6.18;;;4.63;;
48199;SDS011;33990;44.602;10.976;2023-12-20T12:56:08;8.30;;;4.72;;
48199;SDS011;33990;44.602;10.976;2023-12-20T12:58:36;6.57;;;4.88;;
48199;SDS011;33990;44.602;10.976;2023-12-20T13:01:04;7.20;;;4.00;;
48199;SDS011;33990;44.602;10.976;2023-12-20T13:03:31;5.72;;;4.60;;
48199;SDS011;33990;44.602;10.976;2023-12-20T13:05:58;6.05;;;4.75;;
48199;SDS011;33990;44.602;10.976;2023-12-20T13:08:26;7.30;;;4.30;;
48199;SDS011;33990;44.602;10.976;2023-12-20T13:10:55;5.50;;;4.15;;
48199;SDS011;33990;44.602;10.976;2023-12-20T13:13:25;6.80;;;4.60;;
48199;SDS011;33990;44.602;10.976;2023-12-20T13:15:52;5.95;;;4.60;;
48199;SDS011;33990;44.602;10.976;2023-12-20T13:18:22;5.63;;;3.78;;
48199;SDS011;33990;44.602;10.976;2023-12-20T13:20:50;6.53;;;4.45;;
48199;SDS011;33990;44.602;10.976;2023-12-20T13:23:17;6.70;;;4.60;;
48199;SDS011;33990;44.602;10.976;2023-12-20T13:25:45;6.47;;;4.40;;
48199;SDS011;33990;44.602;10.976;2023-12-20T13:28:16;9.55;;;5.10;;
48199;SDS011;33990;44.602;10.976;2023-12-20T13:30:44;4.95;;;3.97;;
48199;SDS011;33990;44.602;10.976;2023-12-20T13:33:12;6.03;;;4.63;;
48199;SDS011;33990;44.602;10.976;2023-12-20T13:35:42;7.35;;;4.05;;
48199;SDS011;33990;44.602;10.976;2023-12-20T13:38:09;6.63;;;4.05;;
48199;SDS011;33990;44.602;10.976;2023-12-20T13:40:37;6.53;;;4.32;;
48199;SDS011;33990;44.602;10.976;2023-12-20T13:43:04;5.80;;;4.88;;
48199;SDS011;33990;44.602;10.976;2023-12-20T13:45:33;6.10;;;4.32;;
48199;SDS011;33990;44.602;10.976;2023-12-20T13:48:00;5.80;;;4.32;;
48199;SDS011;33990;44.602;10.976;2023-12-20T13:50:27;4.82;;;3.83;;
48199;SDS011;33990;44.602;10.976;2023-12-20T13:52:55;5.55;;;4.45;;
48199;SDS011;33990;44.602;10.976;2023-12-20T13:55:22;5.53;;;4.22;;
48199;SDS011;33990;44.602;10.976;2023-12-20T13:57:52;6.78;;;4.15;;
48199;SDS011;33990;44.602;10.976;2023-12-20T14:00:22;6.18;;;4.38;;
48199;SDS011;33990;44.602;10.976;2023-12-20T14:02:50;5.00;;;4.10;;
48199;SDS011;33990;44.602;10.976;2023-12-20T14:05:17;6.20;;;4.63;;
48199;SDS011;33990;44.602;10.976;2023-12-20T14:07:45;6.38;;;4.30;;
48199;SDS011;33990;44.602;10.976;2023-12-20T14:10:14;5.82;;;4.13;;
48199;SDS011;33990;44.602;10.976;2023-12-20T14:12:41;5.68;;;4.35;;
48199;SDS011;33990;44.602;10.976;2023-12-20T14:15:09;5.65;;;4.70;;
48199;SDS011;33990;44.602;10.976;2023-12-20T14:17:38;6.28;;;4.57;;
48199;SDS011;33990;44.602;10.976;2023-12-20T14:20:06;5.13;;;4.03;;
48199;SDS011;33990;44.602;10.976;2023-12-20T14:22:35;6.97;;;4.78;;
48199;SDS011;33990;44.602;10.976;2023-12-20T14:25:02;7.82;;;4.50;;
48199;SDS011;33990;44.602;10.976;2023-12-20T14:27:30;5.07;;;3.55;;
48199;SDS011;33990;44.602;10.976;2023-12-20T14:29:57;5.75;;;4.20;;
48199;SDS011;33990;44.602;10.976;2023-12-20T14:32:25;6.30;;;4.65;;
48199;SDS011;33990;44.602;10.976;2023-12-20T14:34:54;5.82;;;4.10;;
48199;SDS011;33990;44.602;10.976;2023-12-20T14:37:22;5.90;;;4.00;;
48199;SDS011;33990;44.602;10.976;2023-12-20T14:39:49;6.68;;;4.22;;
48199;SDS011;33990;44.602;10.976;2023-12-20T14:42:17;6.32;;;4.97;;
48199;SDS011;33990;44.602;10.976;2023-12-20T14:44:44;13.85;;;10.88;;